Time;durP1;ratioP1;P1;durP2;ratioP2;P2;SDS_P1;SDS_P2;PMS_P1;PMS_P2;Temp;Humidity;BMP_temperature;BMP_pressure;BME280_temperature;BME280_humidity;BME280_pressure;Samples;Min_cycle;Max_cycle;Signal;HPM_P1;HPM_P2
2020/12/07 00:22:03;;;;;;;52.42;26.90;;;;;;;3.17;100.00;98553.88;10531322;28;20036;-70
2020/12/07 00:27:03;;;;;;;57.90;26.77;;;;;;;3.08;100.00;98556.97;10536175;28;20472;-70
2020/12/07 00:32:04;;;;;;;52.58;25.15;;;;;;;3.07;100.00;98568.22;10535194;28;20086;-69
2020/12/07 00:37:07;;;;;;;54.53;26.05;;;;;;;3.09;100.00;98581.06;10536375;28;20052;-70
2020/12/07 00:42:11;;;;;;;57.75;25.33;;;;;;;3.05;100.00;98577.78;10482147;28;20119;-69
2020/12/07 00:47:12;;;;;;;56.25;26.60;;;;;;;3.00;100.00;98578.03;10453376;28;20107;-69
2020/12/07 00:52:13;;;;;;;54.38;25.52;;;;;;;3.08;100.00;98569.03;10453206;28;20528;-69
2020/12/07 00:57:14;;;;;;;55.60;25.90;;;;;;;2.94;100.00;98562.03;10451959;28;20052;-68
2020/12/07 01:02:15;;;;;;;55.28;24.88;;;;;;;2.93;100.00;98575.88;10452094;28;20049;-70
2020/12/07 01:07:16;;;;;;;60.45;26.17;;;;;;;2.90;100.00;98571.66;10452301;28;20056;-70
2020/12/07 01:12:17;;;;;;;55.22;26.50;;;;;;;2.90;100.00;98561.34;10452570;28;20049;-70
2020/12/07 01:17:18;;;;;;;59.05;26.67;;;;;;;2.90;100.00;98566.50;10452254;28;20049;-71
2020/12/07 01:22:19;;;;;;;52.00;25.63;;;;;;;2.86;100.00;98571.91;10452474;28;20087;-71
2020/12/07 01:27:20;;;;;;;62.50;26.65;;;;;;;2.92;100.00;98553.53;10452510;28;20431;-71
2020/12/07 01:32:21;;;;;;;60.67;27.33;;;;;;;2.87;100.00;98556.34;10450506;28;20082;-69
2020/12/07 01:37:22;;;;;;;59.17;26.73;;;;;;;2.90;100.00;98570.84;10451803;28;20444;-69
2020/12/07 01:42:23;;;;;;;63.35;27.02;;;;;;;2.86;100.00;98582.25;10451470;28;20460;-69
2020/12/07 01:47:27;;;;;;;60.28;27.20;;;;;;;2.90;100.00;98586.34;10451188;28;20055;-70
2020/12/07 01:52:28;;;;;;;58.05;25.85;;;;;;;2.90;100.00;98586.34;10451139;28;20044;-70
2020/12/07 01:57:29;;;;;;;65.75;26.80;;;;;;;2.98;100.00;98585.03;10450298;28;20504;-70
2020/12/07 02:02:30;;;;;;;59.15;26.13;;;;;;;2.96;100.00;98589.44;10450475;28;20045;-70
2020/12/07 02:07:31;;;;;;;59.13;25.55;;;;;;;2.91;100.00;98594.03;10432585;28;20546;-69
2020/12/07 02:12:32;;;;;;;59.10;24.95;;;;;;;3.06;100.00;98607.03;10463911;28;20041;-70
2020/12/07 02:17:33;;;;;;;60.25;26.17;;;;;;;3.07;100.00;98612.16;10464188;28;20090;-70
2020/12/07 02:22:34;;;;;;;55.65;24.80;;;;;;;3.03;100.00;98608.06;10464195;28;20057;-70
2020/12/07 02:27:35;;;;;;;52.13;23.13;;;;;;;3.03;100.00;98587.38;10464346;28;20048;-70
2020/12/07 02:32:36;;;;;;;46.65;22.55;;;;;;;3.09;100.00;98576.72;10463161;28;20452;-68
2020/12/07 02:37:38;;;;;;;46.53;22.77;;;;;;;3.08;100.00;98577.63;10463742;28;20415;-69
2020/12/07 02:42:41;;;;;;;49.88;22.15;;;;;;;3.04;100.00;98586.47;10466626;28;20110;-69
2020/12/07 02:47:43;;;;;;;49.10;23.67;;;;;;;3.10;100.00;98603.41;10463838;28;20439;-69
2020/12/07 02:52:44;;;;;;;50.70;23.30;;;;;;;3.01;100.00;98610.72;10463897;28;20045;-69
2020/12/07 02:57:45;;;;;;;50.08;22.40;;;;;;;3.02;100.00;98611.56;10463779;28;20169;-68
2020/12/07 03:02:46;;;;;;;53.15;24.48;;;;;;;3.03;100.00;98605.47;10462898;28;20099;-70
2020/12/07 03:07:47;;;;;;;45.75;22.08;;;;;;;3.00;100.00;98615.94;10463368;28;20559;-69
2020/12/07 03:12:47;;;;;;;49.67;22.55;;;;;;;3.05;100.00;98618.31;10463156;28;20415;-68
2020/12/07 03:17:48;;;;;;;54.88;22.83;;;;;;;3.01;100.00;98622.78;10463526;28;20551;-70
2020/12/07 03:22:49;;;;;;;44.60;21.30;;;;;;;3.00;100.00;98621.13;10457287;28;20060;-70
2020/12/07 03:27:50;;;;;;;42.72;21.33;;;;;;;2.98;100.00;98620.38;10456708;28;20472;-69
2020/12/07 03:32:51;;;;;;;48.30;21.10;;;;;;;3.01;100.00;98623.63;10455775;28;20404;-68
2020/12/07 03:37:52;;;;;;;53.72;23.00;;;;;;;3.03;100.00;98612.38;10455923;28;20143;-69
2020/12/07 03:42:53;;;;;;;44.90;21.08;;;;;;;2.98;100.00;98621.22;10456260;28;20045;-70
2020/12/07 03:47:54;;;;;;;43.17;20.75;;;;;;;3.03;100.00;98627.91;10455695;28;20048;-69
2020/12/07 03:52:55;;;;;;;43.58;20.15;;;;;;;2.99;100.00;98625.47;10455673;28;20106;-69
2020/12/07 03:57:56;;;;;;;41.55;18.73;;;;;;;3.03;100.00;98623.56;10455340;28;20052;-69
2020/12/07 04:02:57;;;;;;;40.90;18.60;;;;;;;2.97;100.00;98621.28;10454372;28;20037;-69
2020/12/07 04:07:58;;;;;;;40.75;17.85;;;;;;;3.04;100.00;98629.56;10454929;28;20555;-70
2020/12/07 04:12:58;;;;;;;46.97;21.05;;;;;;;3.18;100.00;98634.84;10454654;28;20049;-69
2020/12/07 04:18:00;;;;;;;48.55;23.77;;;;;;;3.14;100.00;98636.75;10454974;28;20501;-70
2020/12/07 04:23:01;;;;;;;47.30;22.63;;;;;;;3.23;100.00;98649.19;10454344;28;20041;-69
2020/12/07 04:28:02;;;;;;;57.30;24.88;;;;;;;3.23;100.00;98651.78;10454557;28;20044;-69
2020/12/07 04:33:03;;;;;;;58.00;26.33;;;;;;;3.32;100.00;98661.63;10455755;28;20045;-68
2020/12/07 04:38:04;;;;;;;53.13;25.15;;;;;;;3.32;100.00;98665.97;10453603;28;20664;-69
2020/12/07 04:43:05;;;;;;;55.10;26.05;;;;;;;3.39;100.00;98665.59;10453915;28;20118;-70
2020/12/07 04:48:08;;;;;;;52.97;25.20;;;;;;;3.32;100.00;98666.81;10435531;28;20115;-70
2020/12/07 04:53:09;;;;;;;55.38;26.98;;;;;;;3.37;100.00;98671.75;10453483;28;20049;-70
2020/12/07 04:58:12;;;;;;;50.80;25.15;;;;;;;3.40;100.00;98676.75;10453036;28;20475;-69
2020/12/07 05:03:13;;;;;;;51.92;25.55;;;;;;;3.38;100.00;98679.41;10451965;28;20045;-69
2020/12/07 05:08:14;;;;;;;56.47;26.55;;;;;;;3.42;100.00;98693.00;10452412;28;20049;-70
2020/12/07 05:13:31;;;;;;;57.08;28.42;;;;;;;3.36;100.00;98689.00;10452490;28;20053;-70
2020/12/07 05:18:38;;;;;;;53.72;27.67;;;;;;;3.40;100.00;98695.66;10434913;28;20095;-69
2020/12/07 05:23:42;;;;;;;54.88;27.70;;;;;;;3.49;100.00;98703.88;10451521;28;20440;-70
2020/12/07 05:28:47;;;;;;;60.05;29.00;;;;;;;3.40;100.00;98703.44;10451974;28;20091;-68
2020/12/07 05:33:49;;;;;;;55.72;28.27;;;;;;;3.39;100.00;98699.19;10450593;28;20122;-69
2020/12/07 05:38:50;;;;;;;56.25;28.45;;;;;;;3.46;100.00;98702.28;10451616;28;20081;-69
2020/12/07 05:43:52;;;;;;;56.95;27.48;;;;;;;3.40;100.00;98705.22;10450911;28;20088;-67
2020/12/07 05:48:55;;;;;;;53.83;28.80;;;;;;;3.38;100.00;98712.19;10451685;28;20103;-69
2020/12/07 05:53:57;;;;;;;55.47;28.60;;;;;;;3.43;100.00;98713.63;10433376;28;20103;-69
2020/12/07 05:59:21;;;;;;;57.55;29.35;;;;;;;3.43;100.00;98726.56;10451036;28;20538;-70
2020/12/07 06:04:22;;;;;;;57.55;29.40;;;;;;;3.43;100.00;98736.91;10449319;28;20049;-69
2020/12/07 06:09:26;;;;;;;58.50;29.85;;;;;;;3.52;100.00;98732.16;10450345;28;20721;-68
2020/12/07 06:14:28;;;;;;;54.13;29.33;;;;;;;3.51;100.00;98736.50;10450842;28;20083;-69
2020/12/07 06:19:32;;;;;;;57.65;28.88;;;;;;;3.44;100.00;98728.25;10450253;28;20060;-69
2020/12/07 06:24:44;;;;;;;64.78;31.08;;;;;;;3.52;100.00;98739.91;10450448;28;20463;-68
2020/12/07 06:30:00;;;;;;;56.92;29.80;;;;;;;3.50;100.00;98734.00;10452675;28;20394;-70
2020/12/07 06:35:08;;;;;;;57.40;30.70;;;;;;;3.54;100.00;98740.69;10449229;28;20103;-69
2020/12/07 06:40:09;;;;;;;61.88;30.23;;;;;;;3.59;100.00;98743.88;10450461;28;20049;-69
2020/12/07 06:45:30;;;;;;;63.25;31.23;;;;;;;3.58;100.00;98748.19;10450017;28;20488;-69
2020/12/07 06:50:36;;;;;;;65.07;31.58;;;;;;;3.69;100.00;98755.41;10449799;28;20056;-69
2020/12/07 06:55:43;;;;;;;68.18;31.45;;;;;;;3.56;100.00;98768.13;10432897;28;20053;-68
2020/12/07 07:00:44;;;;;;;67.72;31.33;;;;;;;3.55;100.00;98766.47;10456721;28;20151;-70
2020/12/07 07:05:45;;;;;;;61.42;30.20;;;;;;;3.47;100.00;98775.53;10469645;28;20059;-70
2020/12/07 07:10:46;;;;;;;63.38;31.15;;;;;;;3.48;100.00;98790.13;10465026;28;20060;-70
2020/12/07 07:15:47;;;;;;;59.45;28.50;;;;;;;3.42;100.00;98792.13;10498335;28;20045;-69
2020/12/07 07:20:48;;;;;;;66.35;31.20;;;;;;;3.41;100.00;98795.63;10487176;28;20053;-69
2020/12/07 07:25:58;;;;;;;61.00;28.83;;;;;;;3.40;100.00;98796.53;10457191;28;20493;-69
2020/12/07 07:31:04;;;;;;;65.38;30.17;;;;;;;3.41;100.00;98807.72;10455848;28;20493;-68
2020/12/07 07:36:05;;;;;;;62.53;29.05;;;;;;;3.34;100.00;98808.94;10456803;28;20053;-69
2020/12/07 07:41:21;;;;;;;62.97;29.95;;;;;;;3.35;100.00;98814.03;10494625;28;20048;-69
2020/12/07 07:46:23;;;;;;;62.95;29.95;;;;;;;3.40;100.00;98830.13;10497610;28;20057;-68
2020/12/07 08:18:33;;;;;;;55.40;27.33;;;;;;;3.92;100.00;98852.50;10463077;28;20152;-68
2020/12/07 08:23:34;;;;;;;57.25;28.25;;;;;;;4.12;100.00;98853.16;10454679;28;20057;-68
2020/12/07 08:28:41;;;;;;;59.90;30.70;;;;;;;4.29;100.00;98860.88;10457392;28;20052;-69
2020/12/07 08:34:12;;;;;;;52.45;25.38;;;;;;;4.40;100.00;98868.06;10453391;28;20557;-68
2020/12/07 08:39:13;;;;;;;52.17;26.83;;;;;;;4.40;100.00;98869.81;10436979;28;20052;-69
2020/12/07 08:44:13;;;;;;;49.60;24.60;;;;;;;4.39;99.87;98878.50;10436424;28;20049;-68
2020/12/07 08:49:16;;;;;;;48.85;23.60;;;;;;;4.25;98.93;98882.66;10454152;28;20098;-68
2020/12/07 08:54:17;;;;;;;50.45;24.30;;;;;;;4.22;100.00;98892.34;10453315;28;20140;-69
2020/12/07 08:59:18;;;;;;;52.30;24.90;;;;;;;4.05;100.00;98890.66;10453443;28;20063;-70
2020/12/07 09:04:18;;;;;;;55.10;26.13;;;;;;;4.00;100.00;98891.81;10451625;28;20041;-68
2020/12/07 09:09:19;;;;;;;51.90;26.20;;;;;;;3.93;100.00;98896.44;10453254;28;20056;-70
2020/12/07 09:14:20;;;;;;;58.88;26.90;;;;;;;3.85;100.00;98893.44;10452444;28;20052;-70
2020/12/07 09:19:21;;;;;;;58.10;28.15;;;;;;;3.76;100.00;98901.63;10433950;28;20136;-69
2020/12/07 09:24:22;;;;;;;57.40;26.40;;;;;;;3.76;100.00;98910.22;10452652;28;20143;-69
2020/12/07 09:29:23;;;;;;;58.30;26.92;;;;;;;3.79;100.00;98915.28;10452346;28;20397;-68
2020/12/07 09:34:24;;;;;;;57.65;27.58;;;;;;;3.75;100.00;98916.34;10433695;28;20045;-69
2020/12/07 09:39:25;;;;;;;57.55;28.33;;;;;;;3.84;100.00;98913.28;10452222;28;20140;-69
2020/12/07 09:44:26;;;;;;;61.33;28.95;;;;;;;4.02;100.00;98910.66;10451476;28;20492;-70
2020/12/07 09:49:27;;;;;;;54.97;27.08;;;;;;;4.10;100.00;98906.78;10452117;28;20052;-68
2020/12/07 09:54:28;;;;;;;51.58;25.50;;;;;;;4.04;100.00;98903.66;10451436;28;20485;-69
2020/12/07 09:59:30;;;;;;;49.33;24.90;;;;;;;4.03;99.96;98905.41;10451888;28;20048;-68
2020/12/07 10:04:32;;;;;;;52.33;25.83;;;;;;;4.32;99.39;98909.06;10450348;28;20118;-69
2020/12/07 10:09:33;;;;;;;47.92;24.05;;;;;;;4.32;98.74;98906.47;10433365;28;20052;-68
2020/12/07 10:14:34;;;;;;;49.50;24.30;;;;;;;4.58;98.18;98905.09;10483148;28;20098;-69
2020/12/07 10:19:35;;;;;;;54.05;25.90;;;;;;;4.83;97.77;98905.44;10492470;28;20053;-69
2020/12/07 10:24:36;;;;;;;43.60;23.15;;;;;;;4.97;97.56;98902.09;10492413;28;20048;-66
2020/12/07 10:29:36;;;;;;;47.50;24.83;;;;;;;5.13;94.61;98898.53;10490500;28;20131;-66
2020/12/07 10:34:38;;;;;;;41.17;23.10;;;;;;;5.11;95.80;98900.41;10499539;28;20150;-67
2020/12/07 10:39:38;;;;;;;40.40;22.02;;;;;;;5.12;93.80;98904.69;10500380;28;20459;-67
2020/12/07 10:44:39;;;;;;;37.35;20.27;;;;;;;5.02;94.42;98908.69;10500202;28;20051;-67
2020/12/07 10:49:40;;;;;;;42.10;22.80;;;;;;;5.05;94.86;98910.28;10499983;28;20053;-67
2020/12/07 10:54:41;;;;;;;42.28;22.02;;;;;;;4.95;94.74;98909.09;10499811;28;20427;-65
2020/12/07 10:59:42;;;;;;;40.25;21.65;;;;;;;4.88;95.18;98915.53;10499214;28;20083;-66
2020/12/07 11:04:43;;;;;;;41.13;21.75;;;;;;;4.94;94.58;98917.81;10495317;28;20096;-66
2020/12/07 11:09:44;;;;;;;39.70;21.55;;;;;;;4.86;95.04;98918.25;10480125;28;20059;-66
2020/12/07 11:14:45;;;;;;;38.60;20.70;;;;;;;4.83;95.10;98918.38;10465158;28;20045;-67
2020/12/07 11:19:46;;;;;;;36.60;20.58;;;;;;;4.86;95.86;98914.81;10457224;28;20550;-66
2020/12/07 11:24:47;;;;;;;36.92;19.90;;;;;;;4.94;94.38;98910.88;10457814;28;20049;-67
2020/12/07 11:29:48;;;;;;;39.53;20.95;;;;;;;4.96;94.36;98906.44;10457084;28;20136;-67
2020/12/07 11:34:48;;;;;;;34.03;19.17;;;;;;;4.89;94.41;98907.69;10455968;28;20053;-66
2020/12/07 11:40:07;;;;;;;33.90;17.67;;;;;;;4.94;95.09;98912.63;10457092;28;20052;-67
2020/12/07 11:45:08;;;;;;;34.70;18.02;;;;;;;5.15;93.92;98904.50;10483629;28;20676;-68
2020/12/07 11:50:09;;;;;;;35.85;19.20;;;;;;;5.24;93.98;98905.72;10497622;28;20109;-68
2020/12/07 11:55:10;;;;;;;32.53;17.70;;;;;;;5.13;93.26;98910.66;10498160;28;20040;-69
2020/12/07 12:00:12;;;;;;;30.10;16.98;;;;;;;5.14;92.30;98915.78;10496646;28;20090;-69
2020/12/07 12:05:13;;;;;;;24.08;12.98;;;;;;;5.26;87.91;98916.84;10479502;28;20045;-69
2020/12/07 12:10:13;;;;;;;21.13;11.50;;;;;;;5.24;87.25;98925.63;10497275;28;20508;-70
2020/12/07 12:15:14;;;;;;;19.60;11.40;;;;;;;5.38;85.22;98923.13;10459079;28;20499;-69
2020/12/07 12:20:15;;;;;;;20.23;10.65;;;;;;;5.93;83.90;98913.00;10455173;28;20063;-70
2020/12/07 12:25:16;;;;;;;29.83;16.27;;;;;;;5.71;86.97;98915.97;10439713;28;20118;-69
2020/12/07 12:30:18;;;;;;;34.60;18.45;;;;;;;5.41;89.92;98920.34;10453873;28;20482;-69
2020/12/07 12:35:18;;;;;;;31.00;17.83;;;;;;;5.17;91.50;98930.34;10454702;28;20099;-69
2020/12/07 12:40:19;;;;;;;34.00;18.23;;;;;;;5.06;93.33;98936.13;10436798;28;20076;-69
2020/12/07 12:45:21;;;;;;;39.28;18.10;;;;;;;5.11;92.92;98936.72;10454064;28;20056;-70
2020/12/07 12:50:22;;;;;;;32.08;18.08;;;;;;;4.99;93.95;98936.53;10453977;28;20053;-68
2020/12/07 12:55:23;;;;;;;37.08;18.30;;;;;;;5.08;93.37;98926.50;10465673;28;20055;-69
2020/12/07 13:00:24;;;;;;;33.60;18.90;;;;;;;5.12;92.97;98933.19;10493649;28;20044;-68
2020/12/07 13:05:26;;;;;;;28.00;16.90;;;;;;;5.12;91.24;98933.19;10494446;28;20484;-68
2020/12/07 13:10:27;;;;;;;26.98;14.82;;;;;;;5.26;88.61;98924.63;10493786;28;20048;-68
2020/12/07 13:15:29;;;;;;;24.95;14.00;;;;;;;5.08;89.55;98936.03;10436997;28;20045;-69
2020/12/07 13:20:37;;;;;;;23.55;13.32;;;;;;;5.19;88.72;98928.50;10452738;28;20056;-68
2020/12/07 13:26:15;;;;;;;20.10;10.90;;;;;;;5.06;87.78;98912.78;10454832;28;20072;-69
2020/12/07 13:31:06;;;;;;;19.35;9.95;;;;;;;4.98;86.08;98925.31;10470093;28;20045;-70
2020/12/07 13:36:14;;;;;;;19.45;10.65;;;;;;;4.88;86.93;98921.56;10493873;28;20484;-69
2020/12/07 13:41:15;;;;;;;22.23;12.05;;;;;;;4.81;87.70;98928.03;10493595;28;20059;-69
2020/12/07 13:46:17;;;;;;;23.08;11.60;;;;;;;4.81;88.77;98922.84;10493292;28;20048;-68
2020/12/07 13:51:20;;;;;;;24.73;12.77;;;;;;;4.84;89.72;98924.41;10493566;28;20078;-69
2020/12/07 13:56:22;;;;;;;28.40;14.35;;;;;;;4.67;90.52;98922.75;10488593;28;20380;-68
2020/12/07 14:01:24;;;;;;;26.42;14.32;;;;;;;4.64;91.23;98915.13;10491704;28;20079;-68
2020/12/07 14:06:28;;;;;;;25.98;14.50;;;;;;;4.78;90.08;98922.97;10492115;28;20576;-69
2020/12/07 14:11:29;;;;;;;24.85;13.50;;;;;;;4.65;90.79;98928.00;10486087;28;20111;-69
2020/12/07 14:16:34;;;;;;;27.17;13.57;;;;;;;4.57;91.58;98945.69;10451510;28;20479;-69
2020/12/07 14:38:47;;;;;;;25.15;13.75;;;;;;;4.66;91.12;98965.13;10452107;28;20488;-69
2020/12/07 14:42:53;;;;;;;23.75;12.85;;;;;;;4.55;90.97;98964.84;10450630;28;20053;-68
2020/12/07 14:48:01;;;;;;;25.00;14.68;;;;;;;4.53;89.88;98959.75;10450468;28;20447;-68
2020/12/07 14:53:09;;;;;;;24.85;12.82;;;;;;;4.59;89.65;98964.59;10450584;28;20102;-69
2020/12/07 15:18:56;;;;;;;29.33;14.90;;;;;;;4.50;89.27;98956.50;10495988;28;20089;-68
2020/12/07 15:23:57;;;;;;;28.77;15.13;;;;;;;4.51;90.47;98950.41;10498374;28;20098;-68
2020/12/07 15:28:58;;;;;;;26.60;14.43;;;;;;;4.49;87.67;98950.47;10498769;28;20484;-68
2020/12/07 15:33:59;;;;;;;29.35;16.05;;;;;;;4.47;88.31;98951.47;10497185;28;20040;-68
2020/12/07 15:39:00;;;;;;;26.80;14.68;;;;;;;4.47;91.40;98961.84;10497632;28;20129;-68
2020/12/07 15:44:01;;;;;;;28.40;15.27;;;;;;;4.47;91.39;98961.84;10497852;28;20052;-70
2020/12/07 15:49:04;;;;;;;24.75;14.25;;;;;;;4.44;89.21;98961.97;10497835;28;20110;-69
2020/12/07 15:54:05;;;;;;;30.65;16.27;;;;;;;4.54;89.96;98971.78;10497569;28;20049;-69
2020/12/07 15:59:05;;;;;;;30.05;15.05;;;;;;;4.47;90.74;98967.84;10497262;28;20522;-69
2020/12/07 16:04:08;;;;;;;23.85;13.45;;;;;;;4.40;89.68;98963.06;10496518;28;20083;-69
2020/12/07 16:09:09;;;;;;;34.10;19.05;;;;;;;4.43;90.88;98974.09;10496645;28;20102;-69
2020/12/07 16:14:10;;;;;;;23.17;13.93;;;;;;;4.36;93.93;98967.56;10467837;28;20044;-69
2020/12/07 16:19:10;;;;;;;21.58;12.50;;;;;;;4.26;95.42;98962.03;10455142;28;20554;-69
2020/12/07 16:24:13;;;;;;;20.52;12.00;;;;;;;4.20;96.56;98966.69;10454534;28;20512;-69
2020/12/07 16:29:14;;;;;;;20.40;11.52;;;;;;;4.16;95.53;98968.59;10436756;28;20546;-69
2020/12/07 16:34:15;;;;;;;21.15;11.48;;;;;;;4.11;96.85;98962.81;10438305;28;20053;-69
2020/12/07 16:39:16;;;;;;;22.08;13.50;;;;;;;4.08;98.01;98965.56;10454595;28;20053;-69
2020/12/07 16:44:17;;;;;;;24.60;13.27;;;;;;;4.05;98.40;98968.31;10454058;28;20718;-69
2020/12/07 16:49:18;;;;;;;24.80;14.68;;;;;;;4.02;99.09;98968.44;10453913;28;20122;-69
2020/12/07 16:54:19;;;;;;;24.65;14.13;;;;;;;4.02;98.83;98976.22;10453669;28;20045;-67
2020/12/07 16:59:20;;;;;;;26.92;14.18;;;;;;;4.05;97.83;98968.31;10453686;28;20110;-68
2020/12/07 17:04:20;;;;;;;41.63;22.30;;;;;;;4.11;96.99;98973.19;10452315;28;20527;-68
2020/12/07 17:09:22;;;;;;;39.03;23.05;;;;;;;4.12;94.99;98974.84;10453249;28;20048;-69
2020/12/07 17:14:24;;;;;;;37.80;22.50;;;;;;;4.01;94.32;98969.38;10452488;28;20072;-68
2020/12/07 17:19:25;;;;;;;31.23;18.70;;;;;;;3.97;94.44;98975.59;10452702;28;20049;-69
2020/12/07 17:24:26;;;;;;;33.28;18.67;;;;;;;3.93;94.58;98968.91;10434915;28;20435;-69
2020/12/07 17:29:27;;;;;;;31.92;18.38;;;;;;;3.88;95.58;98973.50;10452977;28;20136;-68
2020/12/07 17:34:27;;;;;;;33.88;19.25;;;;;;;3.85;95.32;98971.91;10451126;28;20055;-68
2020/12/07 17:39:28;;;;;;;35.67;21.08;;;;;;;3.91;95.19;98978.53;10451670;28;20140;-69
2020/12/07 17:44:29;;;;;;;31.95;19.90;;;;;;;3.82;95.79;98972.03;10451816;28;20080;-68
2020/12/07 17:49:31;;;;;;;38.88;22.70;;;;;;;3.90;96.70;98969.09;10451802;28;20143;-68
2020/12/07 17:54:32;;;;;;;41.63;26.42;;;;;;;3.85;96.16;98971.06;10451690;28;20766;-68
2020/12/07 17:59:33;;;;;;;45.72;25.55;;;;;;;3.94;95.28;98970.59;10452032;28;20053;-68
2020/12/07 18:04:33;;;;;;;43.72;24.63;;;;;;;3.84;95.90;98966.78;10450435;28;20409;-69
2020/12/07 18:09:34;;;;;;;42.55;23.48;;;;;;;3.72;95.42;98969.97;10451734;28;20068;-68
2020/12/07 18:14:35;;;;;;;41.63;21.02;;;;;;;3.64;96.42;98979.88;10483293;28;20060;-69
2020/12/07 18:19:36;;;;;;;37.17;20.35;;;;;;;3.60;96.66;98970.59;10480734;28;20488;-68
2020/12/07 18:24:37;;;;;;;39.45;21.40;;;;;;;3.65;97.30;98966.88;10453924;28;20073;-68
2020/12/07 18:29:38;;;;;;;40.33;22.15;;;;;;;3.57;97.55;98975.91;10450893;28;20057;-68
2020/12/07 18:34:39;;;;;;;39.55;21.63;;;;;;;3.59;97.77;98977.53;10452911;28;20045;-68
2020/12/07 18:39:40;;;;;;;41.05;23.42;;;;;;;3.57;98.08;98966.41;10450964;28;20053;-69
2020/12/07 18:44:41;;;;;;;42.30;23.38;;;;;;;3.57;97.93;98970.72;10462215;28;20045;-69
2020/12/07 18:49:42;;;;;;;43.42;24.73;;;;;;;3.59;97.59;98967.16;10457155;28;20471;-68
2020/12/07 18:54:43;;;;;;;48.38;26.13;;;;;;;3.54;99.13;98958.78;10465337;28;20095;-68
2020/12/07 18:59:44;;;;;;;46.25;24.13;;;;;;;3.55;98.64;98963.06;10499634;28;20059;-68
2020/12/07 19:04:45;;;;;;;52.25;29.10;;;;;;;3.60;97.15;98965.44;10497935;28;20056;-68
2020/12/07 19:09:46;;;;;;;44.35;24.00;;;;;;;3.51;97.67;98961.50;10499582;28;20052;-69
2020/12/07 19:14:47;;;;;;;38.88;21.70;;;;;;;3.42;99.03;98961.97;10464941;28;20044;-69
2020/12/07 19:19:48;;;;;;;36.92;22.00;;;;;;;3.33;99.57;98952.91;10457233;28;20056;-69
2020/12/07 19:24:49;;;;;;;37.42;21.60;;;;;;;3.19;99.36;98955.31;10457761;28;20081;-68
2020/12/07 19:29:49;;;;;;;36.22;22.92;;;;;;;3.06;99.41;98958.53;10456938;28;20076;-69
2020/12/07 19:34:50;;;;;;;33.80;21.55;;;;;;;2.86;99.77;98955.13;10456076;28;20048;-69
2020/12/07 19:39:51;;;;;;;36.63;21.65;;;;;;;2.76;100.00;98964.22;10494043;28;20064;-70
2020/12/07 19:44:53;;;;;;;50.83;26.05;;;;;;;2.65;100.00;98963.03;10478270;28;20527;-69
2020/12/07 19:49:54;;;;;;;42.13;24.63;;;;;;;2.50;100.00;98961.97;10456572;28;20099;-70
2020/12/07 19:54:54;;;;;;;34.38;20.55;;;;;;;2.39;100.00;98962.44;10456924;28;20052;-70
2020/12/07 19:59:55;;;;;;;34.50;18.67;;;;;;;2.30;100.00;98952.53;10456190;28;20075;-70
2020/12/07 20:04:56;;;;;;;36.10;19.67;;;;;;;2.25;100.00;98954.47;10454073;28;20048;-70
2020/12/07 20:09:58;;;;;;;32.45;17.60;;;;;;;2.20;99.66;98956.41;10456396;28;20053;-70
2020/12/07 20:15:00;;;;;;;30.50;15.98;;;;;;;2.09;99.71;98958.63;10455420;28;20126;-69
2020/12/07 20:20:04;;;;;;;22.55;13.32;;;;;;;2.02;99.84;98962.38;10455009;28;20589;-70
2020/12/07 20:25:05;;;;;;;26.98;14.00;;;;;;;1.97;100.00;98966.91;10455368;28;20051;-70
2020/12/07 20:30:06;;;;;;;23.48;13.55;;;;;;;1.89;99.36;98966.38;10454017;28;20555;-70
2020/12/07 20:35:07;;;;;;;22.50;12.85;;;;;;;1.79;99.34;98952.19;10439727;28;20088;-70
2020/12/07 20:40:08;;;;;;;22.92;12.95;;;;;;;1.64;99.33;98957.06;10454303;28;20049;-70
2020/12/07 20:45:09;;;;;;;20.42;12.18;;;;;;;1.62;99.73;98953.75;10454268;28;20455;-70
2020/12/07 20:50:10;;;;;;;22.65;12.38;;;;;;;1.67;99.12;98963.88;10454158;28;20045;-70
2020/12/07 20:55:11;;;;;;;19.67;12.10;;;;;;;1.58;99.64;98969.38;10453952;28;20057;-70
2020/12/07 21:00:12;;;;;;;21.98;13.10;;;;;;;1.55;98.39;98966.94;10453452;28;20064;-70
2020/12/07 21:05:13;;;;;;;23.35;12.40;;;;;;;1.50;99.10;98969.69;10453772;28;20055;-70
2020/12/07 21:10:14;;;;;;;20.08;11.13;;;;;;;1.40;99.87;98968.41;10453601;28;20049;-70
2020/12/07 21:15:15;;;;;;;29.27;13.63;;;;;;;1.52;98.33;98974.81;10452221;28;20041;-70
2020/12/07 21:20:16;;;;;;;30.77;15.02;;;;;;;1.40;99.69;98973.56;10452618;28;20102;-70
2020/12/07 21:25:17;;;;;;;32.78;16.38;;;;;;;1.28;100.00;98984.34;10453137;28;20132;-69
2020/12/07 21:30:18;;;;;;;34.97;16.42;;;;;;;1.19;100.00;98985.53;10452156;28;20496;-71
2020/12/07 21:35:22;;;;;;;29.30;15.10;;;;;;;1.20;100.00;98979.50;10452830;28;20049;-69
2020/12/07 21:40:24;;;;;;;34.40;17.42;;;;;;;1.25;99.64;98982.72;10452548;28;20049;-69
2020/12/07 21:45:25;;;;;;;32.80;14.73;;;;;;;1.17;99.68;98989.06;10434417;28;20052;-69
2020/12/07 21:50:27;;;;;;;40.97;17.85;;;;;;;1.16;100.00;98984.84;10452135;28;20087;-69
2020/12/07 21:55:27;;;;;;;39.58;17.63;;;;;;;1.17;98.55;98984.75;10452199;28;20044;-70
2020/12/07 22:00:28;;;;;;;44.00;18.58;;;;;;;1.11;98.20;98981.59;10451579;28;20644;-69
2020/12/07 22:05:29;;;;;;;43.45;18.42;;;;;;;1.04;98.33;98980.13;10433867;28;20045;-68
2020/12/07 22:10:30;;;;;;;37.10;15.57;;;;;;;0.95;99.91;98980.50;10452166;28;20045;-69
2020/12/07 22:15:31;;;;;;;39.97;17.48;;;;;;;0.93;99.97;98977.13;10491858;28;20055;-70
2020/12/07 22:20:36;;;;;;;34.35;17.08;;;;;;;0.82;100.00;98969.81;10492752;28;20083;-69
2020/12/07 22:25:36;;;;;;;39.20;16.73;;;;;;;0.74;100.00;98972.69;10490940;28;20527;-68
2020/12/07 22:30:38;;;;;;;34.78;15.85;;;;;;;0.71;100.00;98967.63;10500708;28;20041;-67
2020/12/07 22:35:39;;;;;;;33.83;15.50;;;;;;;0.72;100.00;98965.91;10501306;28;20040;-67
2020/12/07 22:40:40;;;;;;;38.53;15.60;;;;;;;0.72;100.00;98958.16;10501030;28;20559;-67
2020/12/07 22:45:41;;;;;;;37.38;15.07;;;;;;;0.63;100.00;98964.50;10500611;28;20045;-68
2020/12/07 22:50:42;;;;;;;36.25;15.13;;;;;;;0.61;100.00;98956.00;10500239;28;20114;-69
2020/12/07 22:55:43;;;;;;;42.45;16.98;;;;;;;0.65;100.00;98961.91;10500402;28;20048;-70
2020/12/07 23:00:44;;;;;;;38.17;16.42;;;;;;;0.65;99.99;98946.44;10499196;28;20488;-70
2020/12/07 23:05:45;;;;;;;37.92;15.05;;;;;;;0.52;99.58;98955.50;10462042;28;20532;-69
2020/12/07 23:10:46;;;;;;;37.83;15.90;;;;;;;0.51;99.48;98949.50;10522391;28;20059;-69
2020/12/07 23:15:47;;;;;;;40.40;16.02;;;;;;;0.43;99.61;98956.69;10541032;28;20044;-70
2020/12/07 23:20:48;;;;;;;42.45;17.02;;;;;;;0.42;99.94;98955.00;10540446;28;20483;-70
2020/12/07 23:25:50;;;;;;;35.47;15.13;;;;;;;0.34;100.00;98951.88;10540765;28;20044;-70
2020/12/07 23:30:51;;;;;;;38.58;15.98;;;;;;;0.27;100.00;98952.97;10539512;28;20051;-70
2020/12/07 23:35:52;;;;;;;40.08;16.35;;;;;;;0.24;100.00;98945.38;10540266;28;20139;-69
2020/12/07 23:40:53;;;;;;;40.92;16.58;;;;;;;0.23;100.00;98935.97;10539112;28;20063;-69
2020/12/07 23:45:54;;;;;;;36.30;15.60;;;;;;;0.18;100.00;98943.03;10539625;28;20048;-70
2020/12/07 23:50:55;;;;;;;32.45;14.30;;;;;;;0.17;100.00;98933.63;10539400;28;20082;-70
2020/12/07 23:55:56;;;;;;;39.45;16.95;;;;;;;0.20;100.00;98936.09;10539170;28;20044;-69
